Catàleg de serveis del Meteocat
Campanya meteocatpedra

Dades de l'estació automàtica Torres de Segre

?
?
Resum diari 22:00 TU
Dades diàries de l'estació meteorològica
Temperatura mitjana 9.1 °C
Temperatura màxima 14.1 °C 15:08 TU
Temperatura mínima 5.5 °C 7:01 TU
Humitat relativa mitjana 79%
Precipitació acumulada 5.8 mm
Ratxa màxima del vent (2 m) 28.8 km/h - 300º 17:09 TU
Irradiació solar global 6.0 MJ/m2

El tram horari està expressat en Temps Universal (TU). Cal sumar una hora en horari d'hivern i dues en horari d'estiu per passar a l'hora oficial.

Torres de Segre

Metadades estació meteorol´gica
Municipi Torres de Segre
Comarca Segrià
Altitud 215 m
Data alta 02.07.2007
Estat actual Operativa
Dades de període
Període
TU
TM
°C
TX
°C
TN
°C
HRM
%
PPT
mm
VVM (2 m)
km/h
DVM (2 m)
graus
VVX (2 m)
km/h
RS
W/m2
00:00 - 00:30 9.5 10.0 9.1 73 0.0 8.3 215 12.2 0
00:30 - 01:00 9.1 9.4 8.7 75 0.0 7.6 220 12.6 0
01:00 - 01:30 9.2 9.4 8.7 75 0.0 7.9 233 13.0 0
01:30 - 02:00 9.3 9.6 9.1 76 0.0 7.9 233 11.5 0
02:00 - 02:30 9.5 9.8 9.3 74 0.0 6.5 245 12.2 0
02:30 - 03:00 9.2 9.6 8.8 75 0.0 2.5 190 5.0 0
03:00 - 03:30 8.0 8.9 7.8 79 0.0 6.8 133 10.8 0
03:30 - 04:00 7.9 8.1 7.6 81 0.0 7.6 131 10.4 0
04:00 - 04:30 8.3 8.8 8.0 79 0.0 5.0 142 8.6 0
04:30 - 05:00 8.0 8.9 6.7 82 0.0 2.5 302 4.7 0
05:00 - 05:30 6.3 6.6 6.0 92 0.1 2.5 327 4.0 0
05:30 - 06:00 6.0 6.2 5.9 94 0.3 2.5 40 5.0 0
06:00 - 06:30 5.7 5.9 5.6 95 0.4 3.2 49 5.8 0
06:30 - 07:00 5.6 5.7 5.5 96 0.7 4.3 23 9.7 0
07:00 - 07:30 5.5 5.6 5.5 97 0.9 6.8 56 11.9 5
07:30 - 08:00 5.7 5.8 5.6 97 0.8 5.8 61 10.4 22
08:00 - 08:30 6.0 6.1 5.8 97 1.3 2.5 29 5.8 31
08:30 - 09:00 6.1 6.2 6.1 98 1.1 2.9 332 5.0 27
09:00 - 09:30 6.2 6.3 6.1 98 0.1 2.9 343 6.1 31
09:30 - 10:00 6.5 6.7 6.3 98 0.1 4.3 150 13.7 47
10:00 - 10:30 6.9 7.2 6.6 98 0.0 5.8 214 13.3 65
10:30 - 11:00 7.2 7.6 7.0 98 0.0 3.6 251 7.6 142
11:00 - 11:30 8.1 8.5 7.6 97 0.0 4.0 211 7.6 273
11:30 - 12:00 8.8 9.1 8.5 95 0.0 4.0 235 6.8 227
12:00 - 12:30 9.6 10.5 9.1 92 0.0 4.0 210 8.3 357
12:30 - 13:00 10.8 11.2 10.5 85 0.0 3.6 226 9.0 367
13:00 - 13:30 11.2 11.8 10.8 83 0.0 5.8 227 13.7 394
13:30 - 14:00 12.3 12.8 11.7 77 0.0 6.1 205 12.6 409
14:00 - 14:30 12.8 13.2 12.5 76 0.0 7.6 216 14.8 347
14:30 - 15:00 13.3 13.8 13.0 75 0.0 8.6 232 16.2 277
15:00 - 15:30 14.0 14.1 13.7 66 0.0 10.4 254 23.4 188
15:30 - 16:00 13.9 14.1 13.5 55 0.0 11.5 277 21.2 121
16:00 - 16:30 13.1 13.4 12.6 56 0.0 11.2 276 26.6 40
16:30 - 17:00 12.3 12.5 12.0 59 0.0 10.4 253 20.5 2
17:00 - 17:30 11.8 12.0 11.5 57 0.0 10.4 263 28.8 0
17:30 - 18:00 11.4 11.6 10.9 58 0.0 11.5 266 19.1 0
18:00 - 18:30 10.6 11.0 10.2 62 0.0 9.4 251 16.2 0
18:30 - 19:00 10.8 11.1 10.6 60 0.0 8.6 248 20.5 0
19:00 - 19:30 10.7 11.3 9.9 58 0.0 6.1 260 22.0 0
19:30 - 20:00 9.6 9.7 9.3 65 0.0 6.5 199 13.0 0
20:00 - 20:30 9.3 9.8 8.4 67 0.0 7.9 207 14.8 0
20:30 - 21:00 8.7 8.8 8.3 70 0.0 7.2 181 10.4 0
21:00 - 21:30 8.6 8.7 8.4 70 0.0 7.6 171 11.9 0
21:30 - 22:00 8.6 8.8 8.4 71 0.0 7.6 178 11.9 0
22:00 - 22:30 8.1 8.3 7.7 75 0.0 10.4 173 15.1 0

Les dades en taronja només han passat un control de qualitat automàtic. Resta pendent la seva validació definitiva.